createdAt,value
2019-03-25T00:00:29.812Z,100772.33
2019-03-25T00:01:02.907Z,100755.30
2019-03-25T00:01:36.007Z,100775.38
2019-03-25T00:02:07.208Z,100775.38
2019-03-25T00:02:38.377Z,100773.23
2019-03-25T00:03:09.592Z,100774.93
2019-03-25T00:03:40.846Z,100771.48
2019-03-25T00:04:12.074Z,100770.85
2019-03-25T00:04:43.305Z,100770.85
2019-03-25T00:05:14.520Z,100767.01
2019-03-25T00:05:45.740Z,100764.41
2019-03-25T00:06:17.060Z,100765.70
2019-03-25T00:06:48.282Z,100764.09
2019-03-25T00:07:19.525Z,100763.69
2019-03-25T00:07:50.724Z,100761.89
2019-03-25T00:08:21.876Z,100761.89
2019-03-25T00:09:04.527Z,100763.69
2019-03-25T00:09:26.154Z,100758.48
2019-03-25T00:09:57.406Z,100761.95
2019-03-25T00:10:28.557Z,100761.95
2019-03-25T00:10:59.797Z,100755.05
2019-03-25T00:11:30.959Z,100758.13
2019-03-25T00:12:02.246Z,100755.45
2019-03-25T00:12:33.427Z,100755.45
2019-03-25T00:13:04.688Z,100759.34
2019-03-25T00:13:35.845Z,100760.59
2019-03-25T00:14:07.060Z,100759.61
2019-03-25T00:14:38.224Z,100758.66
2019-03-25T00:15:09.445Z,100753.79
2019-03-25T00:15:40.589Z,100753.79
2019-03-25T00:16:11.812Z,100751.77
2019-03-25T00:16:43.056Z,100754.42
2019-03-25T00:17:14.279Z,100753.06
2019-03-25T00:17:45.538Z,100749.00
2019-03-25T00:18:16.736Z,100749.00
2019-03-25T00:18:47.901Z,100738.19
2019-03-25T00:19:19.135Z,100748.85
2019-03-25T00:19:50.279Z,100748.85
2019-03-25T00:20:21.520Z,100747.47
2019-03-25T00:20:52.681Z,100748.31
2019-03-25T00:21:23.882Z,100741.19
2019-03-25T00:21:55.067Z,100741.19
2019-03-25T00:22:26.253Z,100734.46
2019-03-25T00:22:57.431Z,100743.38
2019-03-25T00:23:28.693Z,100743.38
2019-03-25T00:23:59.923Z,100746.78
2019-03-25T00:24:38.685Z,100741.09
2019-03-25T00:25:04.865Z,100739.48
2019-03-25T00:25:36.097Z,100744.73
2019-03-25T00:26:07.326Z,100736.39
2019-03-25T00:26:38.538Z,100732.09
2019-03-25T00:27:09.846Z,100743.92
2019-03-25T00:27:41.067Z,100738.23
2019-03-25T00:28:13.809Z,100737.74
2019-03-25T00:28:45.134Z,100737.74
2019-03-25T00:29:16.313Z,100736.45
2019-03-25T00:29:47.483Z,100735.09
2019-03-25T00:30:18.710Z,100725.11
2019-03-25T00:30:50.018Z,100725.11
2019-03-25T00:31:21.220Z,100726.89
2019-03-25T00:31:52.367Z,100728.91
2019-03-25T00:32:23.662Z,100726.98
2019-03-25T00:32:54.842Z,100723.44
2019-03-25T00:33:26.046Z,100720.75
2019-03-25T00:33:57.190Z,100722.45
2019-03-25T00:34:28.380Z,100724.65
2019-03-25T00:34:59.550Z,100724.65
2019-03-25T00:35:31.764Z,100723.44
2019-03-25T00:36:02.951Z,100723.44
2019-03-25T00:36:34.155Z,100726.49
2019-03-25T00:37:05.295Z,100725.69
2019-03-25T00:37:36.518Z,100729.17
2019-03-25T00:38:07.708Z,100724.87
2019-03-25T00:38:38.891Z,100724.87
2019-03-25T00:39:10.081Z,100723.98
2019-03-25T00:39:41.290Z,100722.68
2019-03-25T00:40:12.455Z,100722.68
2019-03-25T00:40:43.646Z,100727.56
2019-03-25T00:41:14.849Z,100720.58
2019-03-25T00:41:46.047Z,100717.98
2019-03-25T00:42:17.203Z,100720.22
2019-03-25T00:42:48.403Z,100716.73
2019-03-25T00:43:19.592Z,100719.33
2019-03-25T00:43:50.813Z,100719.33
2019-03-25T00:44:21.996Z,100714.57
2019-03-25T00:44:53.177Z,100717.48
2019-03-25T00:45:24.366Z,100706.64
2019-03-25T00:45:55.540Z,100696.60
2019-03-25T00:46:26.724Z,100696.60
2019-03-25T00:46:57.907Z,100717.00
2019-03-25T00:47:29.088Z,100712.64
2019-03-25T00:48:00.245Z,100712.64
2019-03-25T00:48:31.438Z,100711.75
2019-03-25T00:49:02.613Z,100711.75
2019-03-25T00:49:33.806Z,100712.64
2019-03-25T00:50:06.023Z,100712.64
2019-03-25T00:50:37.260Z,100717.26
2019-03-25T00:51:08.446Z,100717.26
2019-03-25T00:51:39.619Z,100714.66
2019-03-25T00:52:10.816Z,100711.17
2019-03-25T00:52:42.020Z,100706.33
2019-03-25T00:53:13.235Z,100713.22
2019-03-25T00:53:44.433Z,100713.22
2019-03-25T00:54:15.600Z,100704.85
2019-03-25T00:54:50.163Z,100709.59
2019-03-25T00:55:19.857Z,100709.59
2019-03-25T00:55:51.091Z,100711.61
2019-03-25T00:56:22.264Z,100711.61
2019-03-25T00:56:54.486Z,100704.72
2019-03-25T00:57:25.772Z,100704.31
2019-03-25T00:57:56.942Z,100703.91
2019-03-25T00:58:28.136Z,100698.63
2019-03-25T00:58:59.308Z,100704.31
2019-03-25T00:59:30.509Z,100704.31
2019-03-25T01:00:02.873Z,100691.72
2019-03-25T01:00:35.273Z,100691.72
2019-03-25T01:01:06.472Z,100695.30
2019-03-25T01:01:37.736Z,100695.30
2019-03-25T01:02:08.897Z,100691.00
2019-03-25T01:02:40.113Z,100694.00
2019-03-25T01:03:11.281Z,100687.56
2019-03-25T01:03:42.483Z,100689.27
2019-03-25T01:04:13.636Z,100686.27
2019-03-25T01:04:44.830Z,100686.35
2019-03-25T01:05:16.000Z,100683.27
2019-03-25T01:05:47.239Z,100687.65
2019-03-25T01:06:18.501Z,100679.72
2019-03-25T01:06:49.698Z,100679.72
2019-03-25T01:07:20.839Z,100684.91
2019-03-25T01:07:52.043Z,100681.34
2019-03-25T01:08:23.179Z,100681.34
2019-03-25T01:08:55.379Z,100681.73
2019-03-25T01:09:26.559Z,100680.16
2019-03-25T01:09:57.759Z,100680.16
2019-03-25T01:10:28.895Z,100680.48
2019-03-25T01:11:00.095Z,100680.42
2019-03-25T01:11:31.255Z,100682.53
2019-03-25T01:12:02.551Z,100682.53
2019-03-25T01:12:33.701Z,100682.13
2019-03-25T01:13:04.896Z,100684.31
2019-03-25T01:13:36.082Z,100682.13
2019-03-25T01:14:07.278Z,100682.13
2019-03-25T01:14:38.424Z,100676.98
2019-03-25T01:15:09.611Z,100671.66
2019-03-25T01:15:40.798Z,100679.58
2019-03-25T01:16:12.022Z,100674.66
2019-03-25T01:16:43.191Z,100670.70
2019-03-25T01:17:14.380Z,100670.70
2019-03-25T01:17:45.578Z,100649.70
2019-03-25T01:18:17.470Z,100665.34
2019-03-25T01:18:48.768Z,100664.13
2019-03-25T01:19:19.944Z,100663.31
2019-03-25T01:19:51.130Z,100660.55
2019-03-25T01:20:22.413Z,100661.44
2019-03-25T01:20:53.703Z,100661.44
2019-03-25T01:21:24.870Z,100658.84
2019-03-25T01:21:56.048Z,100662.34
2019-03-25T01:22:27.314Z,100662.73
2019-03-25T01:22:58.496Z,100658.84
2019-03-25T01:23:29.667Z,100656.19
2019-03-25T01:24:00.844Z,100656.59
2019-03-25T01:24:32.010Z,100656.59
2019-03-25T01:25:05.031Z,100657.05
2019-03-25T01:25:36.206Z,100654.00
2019-03-25T01:26:07.374Z,100651.23
2019-03-25T01:26:38.572Z,100650.69
2019-03-25T01:27:09.741Z,100652.39
2019-03-25T01:27:40.931Z,100647.55
2019-03-25T01:28:12.125Z,100643.16
2019-03-25T01:28:43.342Z,100637.61
2019-03-25T01:29:14.518Z,100637.61
2019-03-25T01:29:45.687Z,100642.80
2019-03-25T01:30:16.871Z,100644.59
2019-03-25T01:30:48.047Z,100645.09
2019-03-25T01:31:19.231Z,100633.31
2019-03-25T01:31:50.404Z,100628.73
2019-03-25T01:32:21.608Z,100642.35
2019-03-25T01:32:52.804Z,100618.05
2019-03-25T01:33:23.994Z,100618.05
2019-03-25T01:33:55.232Z,100644.52
2019-03-25T01:34:26.424Z,100631.80
2019-03-25T01:34:57.618Z,100636.09
2019-03-25T01:35:28.811Z,100636.09
2019-03-25T01:36:00.003Z,100630.50
2019-03-25T01:36:31.193Z,100630.50
2019-03-25T01:37:02.354Z,100637.88
2019-03-25T01:37:33.529Z,100630.98
2019-03-25T01:38:04.704Z,100630.98
2019-03-25T01:38:35.872Z,100630.09
2019-03-25T01:39:07.074Z,100636.04
2019-03-25T01:39:38.306Z,100636.04
2019-03-25T01:40:09.531Z,100631.02
2019-03-25T01:40:40.764Z,100625.83
2019-03-25T01:41:11.999Z,100625.69
2019-03-25T01:41:43.218Z,100623.81
2019-03-25T01:42:14.456Z,100624.56
2019-03-25T01:42:45.738Z,100624.56
2019-03-25T01:43:16.965Z,100617.67
2019-03-25T01:43:48.186Z,100626.41
2019-03-25T01:44:19.396Z,100617.58
2019-03-25T01:44:50.546Z,100617.58
2019-03-25T01:45:21.745Z,100620.98
2019-03-25T01:45:52.884Z,100617.44
2019-03-25T01:46:24.187Z,100620.53
2019-03-25T01:46:55.342Z,100618.08
2019-03-25T01:47:26.616Z,100618.08
2019-03-25T01:47:57.769Z,100612.88
2019-03-25T01:48:28.981Z,100621.30
2019-03-25T01:49:00.135Z,100614.72
2019-03-25T01:49:31.364Z,100618.70
2019-03-25T01:50:05.213Z,100619.52
2019-03-25T01:50:36.409Z,100620.50
2019-03-25T01:51:07.571Z,100617.00
2019-03-25T01:51:38.767Z,100607.11
2019-03-25T01:52:09.976Z,100611.98
2019-03-25T01:52:41.173Z,100615.34
2019-03-25T01:53:12.321Z,100614.76
2019-03-25T01:53:44.519Z,100609.08
2019-03-25T01:54:15.689Z,100602.53
2019-03-25T01:54:46.919Z,100606.74
2019-03-25T01:55:18.121Z,100606.28
2019-03-25T01:55:49.342Z,100606.34
2019-03-25T01:56:20.551Z,100603.34
2019-03-25T01:56:51.767Z,100601.64
2019-03-25T01:57:23.015Z,100605.12
2019-03-25T01:57:54.436Z,100607.23
2019-03-25T01:58:25.694Z,100604.09
2019-03-25T01:58:56.906Z,100605.80
2019-03-25T01:59:28.116Z,100601.33
2019-03-25T01:59:59.275Z,100601.33
2019-03-25T02:00:30.478Z,100600.92
2019-03-25T02:01:01.625Z,100596.08
2019-03-25T02:01:32.816Z,100601.27
2019-03-25T02:02:03.964Z,100597.38
2019-03-25T02:02:35.162Z,100596.97
2019-03-25T02:03:07.316Z,100598.19
2019-03-25T02:03:38.528Z,100595.59
2019-03-25T02:04:09.671Z,100574.28
2019-03-25T02:04:40.873Z,100590.05
2019-03-25T02:05:12.018Z,100594.43
2019-03-25T02:05:43.207Z,100589.24
2019-03-25T02:06:14.417Z,100586.24
2019-03-25T02:06:45.652Z,100585.92
2019-03-25T02:07:16.856Z,100590.71
2019-03-25T02:07:48.240Z,100583.25
2019-03-25T02:08:19.388Z,100592.02
2019-03-25T02:08:50.589Z,100583.33
2019-03-25T02:09:21.860Z,100587.28
2019-03-25T02:09:53.066Z,100585.98
2019-03-25T02:10:24.331Z,100585.09
2019-03-25T02:10:55.512Z,100580.73
2019-03-25T02:11:26.747Z,100579.35
2019-03-25T02:11:57.925Z,100579.35
2019-03-25T02:12:29.101Z,100579.44
2019-03-25T02:13:00.305Z,100580.02
2019-03-25T02:13:31.473Z,100580.02
2019-03-25T02:14:02.643Z,100576.94
2019-03-25T02:14:33.849Z,100573.44
2019-03-25T02:15:05.345Z,100570.80
2019-03-25T02:15:36.533Z,100570.80
2019-03-25T02:16:07.708Z,100576.79
2019-03-25T02:16:38.889Z,100571.52
2019-03-25T02:17:10.065Z,100563.23
2019-03-25T02:17:41.250Z,100560.09
2019-03-25T02:18:12.418Z,100564.74
2019-03-25T02:18:43.604Z,100565.14
2019-03-25T02:19:14.781Z,100545.98
2019-03-25T02:19:46.038Z,100562.47
2019-03-25T02:20:25.945Z,100558.92
2019-03-25T02:20:50.336Z,100555.44
2019-03-25T02:21:21.492Z,100554.68
2019-03-25T02:21:52.751Z,100553.78
2019-03-25T02:22:23.905Z,100556.38
2019-03-25T02:22:56.398Z,100545.05
2019-03-25T02:23:27.644Z,100553.33
2019-03-25T02:23:58.848Z,100550.73
2019-03-25T02:24:30.008Z,100548.59
2019-03-25T02:25:01.507Z,100548.59
2019-03-25T02:25:32.664Z,100540.36
2019-03-25T02:26:03.856Z,100542.37
2019-03-25T02:26:35.051Z,100549.84
2019-03-25T02:27:06.312Z,100539.47
2019-03-25T02:27:37.478Z,100541.97
2019-03-25T02:28:08.680Z,100542.77
2019-03-25T02:28:39.825Z,100539.23
2019-03-25T02:29:11.015Z,100537.94
2019-03-25T02:29:42.201Z,100538.34
2019-03-25T02:30:13.402Z,100535.34
2019-03-25T02:30:44.566Z,100533.70
2019-03-25T02:31:16.759Z,100537.77
2019-03-25T02:31:47.897Z,100530.44
2019-03-25T02:32:19.103Z,100536.52
2019-03-25T02:32:50.274Z,100530.78
2019-03-25T02:33:21.467Z,100533.78
2019-03-25T02:33:52.617Z,100532.48
2019-03-25T02:34:23.833Z,100534.59
2019-03-25T02:34:55.011Z,100531.11
2019-03-25T02:35:26.195Z,100528.02
2019-03-25T02:35:57.376Z,100527.61
2019-03-25T02:36:28.543Z,100525.02
2019-03-25T02:36:59.734Z,100522.38
2019-03-25T02:37:30.910Z,100520.19
2019-03-25T02:38:02.172Z,100524.97
2019-03-25T02:38:33.369Z,100515.48
2019-03-25T02:39:04.556Z,100523.32
2019-03-25T02:39:36.489Z,100521.22
2019-03-25T02:40:07.747Z,100520.06
2019-03-25T02:40:38.947Z,100515.77
2019-03-25T02:41:10.144Z,100515.77
2019-03-25T02:41:41.323Z,100523.06
2019-03-25T02:42:12.510Z,100508.88
2019-03-25T02:42:43.671Z,100513.26
2019-03-25T02:43:14.850Z,100515.71
2019-03-25T02:43:46.165Z,100519.25
2019-03-25T02:44:17.396Z,100517.47
2019-03-25T02:44:48.628Z,100497.55
2019-03-25T02:45:19.828Z,100512.77
2019-03-25T02:45:50.973Z,100511.38
2019-03-25T02:46:22.164Z,100512.37
2019-03-25T02:46:53.341Z,100504.17
2019-03-25T02:47:24.540Z,100504.17
2019-03-25T02:47:55.736Z,100505.97
2019-03-25T02:48:26.949Z,100505.61
2019-03-25T02:48:58.098Z,100505.70
2019-03-25T02:49:29.283Z,100497.83
2019-03-25T02:50:00.660Z,100505.21
2019-03-25T02:50:31.942Z,100496.62
2019-03-25T02:51:03.117Z,100502.27
2019-03-25T02:51:34.312Z,100490.27
2019-03-25T02:52:05.492Z,100498.05
2019-03-25T02:52:36.698Z,100498.05
2019-03-25T02:53:07.871Z,100496.00
2019-03-25T02:53:39.070Z,100491.70
2019-03-25T02:54:10.215Z,100491.70
2019-03-25T02:54:41.406Z,100488.57
2019-03-25T02:55:12.626Z,100492.73
2019-03-25T02:55:43.845Z,100487.86
2019-03-25T02:56:15.121Z,100487.86
2019-03-25T02:56:46.353Z,100483.56
2019-03-25T02:57:17.565Z,100484.05
2019-03-25T02:57:48.794Z,100484.86
2019-03-25T02:58:20.018Z,100488.27
2019-03-25T02:58:51.263Z,100482.18
2019-03-25T02:59:22.476Z,100480.02
2019-03-25T02:59:53.773Z,100484.86
2019-03-25T03:00:37.414Z,100475.46
2019-03-25T03:01:08.574Z,100475.46
2019-03-25T03:01:39.856Z,100476.48
2019-03-25T03:02:10.993Z,100474.44
2019-03-25T03:02:42.202Z,100477.61
2019-03-25T03:03:13.337Z,100476.36
2019-03-25T03:03:44.537Z,100472.15
2019-03-25T03:04:15.681Z,100473.58
2019-03-25T03:04:46.882Z,100473.72
2019-03-25T03:05:18.066Z,100465.25
2019-03-25T03:05:49.260Z,100465.25
2019-03-25T03:06:20.402Z,100466.64
2019-03-25T03:06:51.605Z,100468.83
2019-03-25T03:07:22.752Z,100473.27
2019-03-25T03:07:53.956Z,100471.64
2019-03-25T03:08:25.124Z,100470.34
2019-03-25T03:08:56.330Z,100468.23
2019-03-25T03:09:27.488Z,100470.83
2019-03-25T03:09:58.675Z,100465.55
2019-03-25T03:10:29.884Z,100465.55
2019-03-25T03:11:01.054Z,100465.96
2019-03-25T03:11:32.226Z,100464.26
2019-03-25T03:12:03.505Z,100461.66
2019-03-25T03:12:34.793Z,100468.06
2019-03-25T03:13:05.962Z,100468.06
2019-03-25T03:13:37.160Z,100463.77
2019-03-25T03:14:08.347Z,100464.66
2019-03-25T03:14:39.514Z,100464.66
2019-03-25T03:15:10.679Z,100456.88
2019-03-25T03:15:41.855Z,100462.42
2019-03-25T03:16:13.030Z,100462.83
2019-03-25T03:16:44.220Z,100461.98
2019-03-25T03:17:15.401Z,100457.28
2019-03-25T03:17:46.563Z,100457.28
2019-03-25T03:18:17.738Z,100456.47
2019-03-25T03:18:48.925Z,100456.06
2019-03-25T03:19:20.119Z,100454.36
2019-03-25T03:19:51.296Z,100459.28
2019-03-25T03:20:22.473Z,100459.28
2019-03-25T03:20:53.659Z,100455.39
2019-03-25T03:21:24.828Z,100456.28
2019-03-25T03:21:56.012Z,100456.28
2019-03-25T03:22:27.305Z,100458.52
2019-03-25T03:22:58.558Z,100453.33
2019-03-25T03:23:29.933Z,100457.71
2019-03-25T03:24:01.132Z,100456.91
2019-03-25T03:24:33.284Z,100432.14
2019-03-25T03:25:04.489Z,100450.46
2019-03-25T03:25:35.680Z,100449.61
2019-03-25T03:26:06.861Z,100450.91
2019-03-25T03:26:39.107Z,100447.81
2019-03-25T03:27:10.279Z,100447.81
2019-03-25T03:27:41.477Z,100453.91
2019-03-25T03:28:12.663Z,100445.62
2019-03-25T03:28:43.853Z,100445.62
2019-03-25T03:29:15.094Z,100443.30
2019-03-25T03:29:46.280Z,100444.03
2019-03-25T03:30:18.477Z,100441.03
2019-03-25T03:30:49.667Z,100443.22
2019-03-25T03:31:20.820Z,100434.54
2019-03-25T03:31:52.110Z,100441.92
2019-03-25T03:32:23.269Z,100442.33
2019-03-25T03:32:54.468Z,100435.44
2019-03-25T03:33:25.705Z,100436.65
2019-03-25T03:33:56.894Z,100425.73
2019-03-25T03:34:28.058Z,100440.55
2019-03-25T03:34:59.247Z,100432.75
2019-03-25T03:35:30.390Z,100431.89
2019-03-25T03:36:01.599Z,100435.79
2019-03-25T03:36:32.766Z,100434.05
2019-03-25T03:37:04.018Z,100434.05
2019-03-25T03:37:35.203Z,100428.41
2019-03-25T03:38:06.439Z,100425.33
2019-03-25T03:38:37.602Z,100425.33
2019-03-25T03:39:08.788Z,100426.09
2019-03-25T03:39:39.954Z,100426.48
2019-03-25T03:40:11.142Z,100426.89
2019-03-25T03:40:42.320Z,100426.89
2019-03-25T03:41:13.536Z,100423.41
2019-03-25T03:41:44.686Z,100423.41
2019-03-25T03:42:15.871Z,100425.92
2019-03-25T03:42:47.126Z,100423.27
2019-03-25T03:43:18.351Z,100419.38
2019-03-25T03:43:49.532Z,100420.33
2019-03-25T03:44:20.812Z,100417.73
2019-03-25T03:44:52.027Z,100418.94
2019-03-25T03:45:23.246Z,100419.43
2019-03-25T03:45:54.445Z,100414.24
2019-03-25T03:46:25.617Z,100421.62
2019-03-25T03:46:56.956Z,100411.59
2019-03-25T03:47:28.181Z,100416.78
2019-03-25T03:47:59.413Z,100414.11
2019-03-25T03:48:30.695Z,100396.73
2019-03-25T03:49:01.901Z,100396.73
2019-03-25T03:49:33.142Z,100416.62
2019-03-25T03:50:05.505Z,100416.62
2019-03-25T03:50:36.760Z,100411.83
2019-03-25T03:51:07.940Z,100411.83
2019-03-25T03:51:39.106Z,100406.59
2019-03-25T03:52:10.296Z,100411.83
2019-03-25T03:52:41.474Z,100406.23
2019-03-25T03:53:12.768Z,100404.00
2019-03-25T03:53:43.927Z,100399.22
2019-03-25T03:54:15.138Z,100406.59
2019-03-25T03:54:46.395Z,100401.27
2019-03-25T03:55:17.592Z,100400.83
2019-03-25T03:55:48.854Z,100401.33
2019-03-25T03:56:20.050Z,100404.41
2019-03-25T03:56:52.204Z,100404.81
2019-03-25T03:57:23.413Z,100405.98
2019-03-25T03:57:54.884Z,100381.22
2019-03-25T03:58:26.097Z,100381.22
2019-03-25T03:58:57.331Z,100405.80
2019-03-25T03:59:28.527Z,100397.17
2019-03-25T04:00:00.421Z,100402.76
2019-03-25T04:00:32.779Z,100399.67
2019-03-25T04:01:04.948Z,100399.27
2019-03-25T04:01:36.167Z,100401.46
2019-03-25T04:02:07.340Z,100401.46
2019-03-25T04:02:38.527Z,100396.67
2019-03-25T04:03:09.709Z,100398.38
2019-03-25T04:03:40.977Z,100397.97
2019-03-25T04:04:12.127Z,100394.97
2019-03-25T04:04:43.347Z,100396.73
2019-03-25T04:05:14.498Z,100390.23
2019-03-25T04:05:45.688Z,100384.30
2019-03-25T04:06:16.881Z,100392.02
2019-03-25T04:06:48.103Z,100393.73
2019-03-25T04:07:19.256Z,100394.62
2019-03-25T04:07:50.449Z,100393.73
2019-03-25T04:08:21.594Z,100370.22
2019-03-25T04:08:52.790Z,100388.48
2019-03-25T04:09:23.953Z,100381.52
2019-03-25T04:09:55.145Z,100388.41
2019-03-25T04:10:26.291Z,100388.41
2019-03-25T04:10:57.468Z,100381.02
2019-03-25T04:11:28.640Z,100381.02
2019-03-25T04:11:59.784Z,100379.33
2019-03-25T04:12:30.963Z,100380.22
2019-03-25T04:13:02.209Z,100375.84
2019-03-25T04:13:33.361Z,100379.73
2019-03-25T04:14:04.614Z,100374.54
2019-03-25T04:14:36.911Z,100369.35
2019-03-25T04:15:12.042Z,100372.75
2019-03-25T04:15:44.204Z,100374.49
2019-03-25T04:16:15.394Z,100383.58
2019-03-25T04:16:46.554Z,100372.70
2019-03-25T04:17:17.697Z,100372.63
2019-03-25T04:17:48.898Z,100382.59
2019-03-25T04:18:20.061Z,100377.81
2019-03-25T04:18:51.258Z,100383.48
2019-03-25T04:19:22.442Z,100377.00
2019-03-25T04:19:53.759Z,100372.75
2019-03-25T04:20:24.915Z,100378.92
2019-03-25T04:20:56.094Z,100379.41
2019-03-25T04:21:28.311Z,100375.92
2019-03-25T04:21:59.611Z,100376.86
2019-03-25T04:22:30.765Z,100375.16
2019-03-25T04:23:01.986Z,100374.84
2019-03-25T04:23:33.129Z,100368.75
2019-03-25T04:24:04.338Z,100374.84
2019-03-25T04:24:35.509Z,100372.97
2019-03-25T04:25:06.729Z,100372.97
2019-03-25T04:25:37.980Z,100368.19
2019-03-25T04:26:09.172Z,100368.67
2019-03-25T04:26:40.373Z,100366.89
2019-03-25T04:27:12.630Z,100368.63
2019-03-25T04:27:43.824Z,100366.08
2019-03-25T04:28:15.005Z,100364.78
2019-03-25T04:28:46.195Z,100365.13
2019-03-25T04:29:17.408Z,100368.63
2019-03-25T04:29:48.571Z,100366.08
2019-03-25T04:30:19.734Z,100368.67
2019-03-25T04:30:50.928Z,100366.48
2019-03-25T04:31:22.101Z,100369.48
2019-03-25T04:31:53.278Z,100366.43
2019-03-25T04:32:24.440Z,100365.59
2019-03-25T04:32:55.740Z,100364.73
2019-03-25T04:33:26.912Z,100364.73
2019-03-25T04:33:58.076Z,100360.84
2019-03-25T04:34:29.260Z,100360.41
2019-03-25T04:35:00.520Z,100360.41
2019-03-25T04:35:31.709Z,100361.38
2019-03-25T04:36:03.008Z,100362.67
2019-03-25T04:36:34.183Z,100362.67
2019-03-25T04:37:05.359Z,100361.45
2019-03-25T04:37:36.533Z,100361.09
2019-03-25T04:38:07.816Z,100361.59
2019-03-25T04:38:39.015Z,100360.70
2019-03-25T04:39:10.178Z,100363.20
2019-03-25T04:39:41.356Z,100360.16
2019-03-25T04:40:12.631Z,100357.89
2019-03-25T04:40:43.814Z,100361.38
2019-03-25T04:41:15.002Z,100360.88
2019-03-25T04:41:46.281Z,100361.86
2019-03-25T04:42:17.447Z,100357.97
2019-03-25T04:42:48.663Z,100361.45
2019-03-25T04:43:19.882Z,100360.16
2019-03-25T04:43:51.032Z,100359.75
2019-03-25T04:44:22.257Z,100358.91
2019-03-25T04:44:53.593Z,100357.16
2019-03-25T04:45:24.859Z,100362.34
2019-03-25T04:45:56.111Z,100362.34
2019-03-25T04:46:27.325Z,100354.48
2019-03-25T04:46:58.527Z,100357.56
2019-03-25T04:47:29.676Z,100361.50
2019-03-25T04:48:00.885Z,100362.52
2019-03-25T04:48:32.041Z,100362.52
2019-03-25T04:49:03.263Z,100356.93
2019-03-25T04:49:34.411Z,100356.93
2019-03-25T04:50:05.644Z,100351.28
2019-03-25T04:50:36.856Z,100353.03
2019-03-25T04:51:08.063Z,100355.36
2019-03-25T04:51:39.211Z,100352.77
2019-03-25T04:52:10.411Z,100357.62
2019-03-25T04:52:41.556Z,100357.62
2019-03-25T04:53:12.760Z,100353.81
2019-03-25T04:53:43.909Z,100352.16
2019-03-25T04:54:15.217Z,100353.54
2019-03-25T04:54:46.384Z,100353.54
2019-03-25T04:55:17.600Z,100352.28
2019-03-25T04:55:48.760Z,100346.23
2019-03-25T04:56:20.068Z,100344.17
2019-03-25T04:56:51.218Z,100344.17
2019-03-25T04:57:22.492Z,100341.50
2019-03-25T04:57:53.738Z,100341.50
2019-03-25T04:58:24.927Z,100316.98
2019-03-25T04:58:56.110Z,100338.45
2019-03-25T04:59:27.318Z,100345.34
2019-03-25T04:59:58.507Z,100325.06
2019-03-25T05:00:33.200Z,100338.02
2019-03-25T05:01:04.367Z,100339.31
2019-03-25T05:01:35.571Z,100344.50
2019-03-25T05:02:06.753Z,100340.97
2019-03-25T05:02:37.961Z,100340.97
2019-03-25T05:03:09.127Z,100343.56
2019-03-25T05:03:40.330Z,100343.56
2019-03-25T05:04:11.495Z,100347.09
2019-03-25T05:04:42.697Z,100342.39
2019-03-25T05:05:13.841Z,100341.05
2019-03-25T05:05:45.041Z,100333.86
2019-03-25T05:06:16.202Z,100336.59
2019-03-25T05:06:47.401Z,100339.18
2019-03-25T05:07:18.578Z,100343.08
2019-03-25T05:07:49.811Z,100333.50
2019-03-25T05:08:21.037Z,100335.16
2019-03-25T05:08:52.247Z,100336.45
2019-03-25T05:09:23.590Z,100332.89
2019-03-25T05:09:54.823Z,100333.38
2019-03-25T05:10:26.073Z,100332.00
2019-03-25T05:10:57.268Z,100333.25
2019-03-25T05:11:30.766Z,100334.95
2019-03-25T05:12:01.648Z,100329.23
2019-03-25T05:12:32.811Z,100329.23
2019-03-25T05:13:03.968Z,100326.55
2019-03-25T05:13:35.169Z,100326.95
2019-03-25T05:14:06.330Z,100326.95
2019-03-25T05:14:37.540Z,100329.91
2019-03-25T05:15:08.685Z,100330.72
2019-03-25T05:15:39.890Z,100325.94
2019-03-25T05:16:11.089Z,100324.08
2019-03-25T05:16:42.290Z,100324.52
2019-03-25T05:17:13.468Z,100324.02
2019-03-25T05:17:44.664Z,100325.33
2019-03-25T05:18:15.825Z,100327.02
2019-03-25T05:18:47.021Z,100321.34
2019-03-25T05:19:18.184Z,100322.23
2019-03-25T05:19:50.417Z,100321.84
2019-03-25T05:20:21.583Z,100323.13
2019-03-25T05:20:52.771Z,100325.73
2019-03-25T05:21:23.932Z,100329.53
2019-03-25T05:21:55.137Z,100328.24
2019-03-25T05:22:26.305Z,100319.56
2019-03-25T05:22:57.481Z,100323.95
2019-03-25T05:23:28.730Z,100323.95
2019-03-25T05:23:59.905Z,100317.45
2019-03-25T05:24:31.076Z,100317.45
2019-03-25T05:25:04.149Z,100318.75
2019-03-25T05:25:35.315Z,100319.73
2019-03-25T05:26:06.492Z,100318.87
2019-03-25T05:26:37.659Z,100316.29
2019-03-25T05:27:08.841Z,100318.87
2019-03-25T05:27:39.999Z,100320.67
2019-03-25T05:28:11.187Z,100311.18
2019-03-25T05:28:42.382Z,100314.18
2019-03-25T05:29:13.526Z,100320.75
2019-03-25T05:29:44.729Z,100309.48
2019-03-25T05:30:15.883Z,100312.07
2019-03-25T05:30:47.071Z,100311.75
2019-03-25T05:31:18.265Z,100308.71
2019-03-25T05:31:49.455Z,100319.17
2019-03-25T05:32:20.601Z,100310.98
2019-03-25T05:32:51.785Z,100310.58
2019-03-25T05:33:22.947Z,100305.88
2019-03-25T05:33:54.326Z,100305.88
2019-03-25T05:34:25.489Z,100311.47
2019-03-25T05:34:56.713Z,100311.47
2019-03-25T05:35:27.850Z,100311.52
2019-03-25T05:35:59.047Z,100312.00
2019-03-25T05:36:30.208Z,100312.48
2019-03-25T05:37:01.415Z,100312.13
2019-03-25T05:37:32.588Z,100311.80
2019-03-25T05:38:03.790Z,100316.23
2019-03-25T05:38:34.944Z,100311.92
2019-03-25T05:39:07.632Z,100309.01
2019-03-25T05:39:39.784Z,100312.54
2019-03-25T05:40:10.984Z,100311.80
2019-03-25T05:40:42.147Z,100318.02
2019-03-25T05:41:13.330Z,100315.47
2019-03-25T05:41:44.500Z,100312.95
2019-03-25T05:42:15.758Z,100315.63
2019-03-25T05:42:46.974Z,100314.86
2019-03-25T05:43:18.152Z,100312.75
2019-03-25T05:43:50.318Z,100315.83
2019-03-25T05:44:21.562Z,100306.86
2019-03-25T05:44:52.792Z,100306.86
2019-03-25T05:45:24.165Z,100314.29
2019-03-25T05:45:55.383Z,100311.28
2019-03-25T05:46:26.714Z,100313.48
2019-03-25T05:46:57.955Z,100312.66
2019-03-25T05:47:29.188Z,100317.94
2019-03-25T05:48:00.382Z,100317.94
2019-03-25T05:48:31.532Z,100308.84
2019-03-25T05:49:02.737Z,100312.45
2019-03-25T05:49:33.879Z,100314.69
2019-03-25T05:50:05.563Z,100313.06
2019-03-25T05:50:36.817Z,100315.30
2019-03-25T05:51:08.047Z,100306.70
2019-03-25T05:51:39.199Z,100312.45
2019-03-25T05:52:10.389Z,100311.19
2019-03-25T05:52:41.628Z,100315.70
2019-03-25T05:53:12.827Z,100312.69
2019-03-25T05:53:43.978Z,100306.20
2019-03-25T05:54:15.201Z,100309.36
2019-03-25T05:54:46.351Z,100316.38
2019-03-25T05:55:17.611Z,100311.66
2019-03-25T05:55:48.813Z,100300.91
2019-03-25T05:56:21.001Z,100307.48
2019-03-25T05:57:02.066Z,100307.52
2019-03-25T05:57:25.256Z,100308.01